Aérodrome :
LOGIN :

S'inscrire | Disclaimer

   EN    FR    IT 

 










Légende :    VFR   VFR Marginal   IFR   IFR Intensif   IFR Très Intensif
Visi : 
Plafond : 
>= 8 km
>= 3000ft
5 à 8 km
1000 à 3000 ft
1500m à 5 km
500 à 1000 ft
800 à 1500m
200 à 500 ft
< 800m
< 200 ft
Symboles :   Orages  Brouillard  Fortes neiges  Fortes précipitations  Vent > 20 kt
SIGMETs :   Divers  Orages  Givrage  Turbulence  Onde Orograph.  Cendres Volcan.






- Altitude de l'aérodrome : 349 ft
- Code IATA : LPP


EFLP - Lappeenranta

DERNIER METAR :
  • 040950Z AUTO 26013KT 220V300 9999 FEW048 04/M06 Q1008

METARs EXPIRÉS :
  • 040920Z AUTO 29013KT 9999 FEW040 03/M06 Q1007
  • 040850Z AUTO 26013KT 230V290 9999 BKN035 02/M06 Q1007
  • 040820Z AUTO 28012KT 240V310 9999 FEW035 03/M05 Q1006
  • 040750Z AUTO 27013KT 9999 FEW026 01/M05 Q1006
  • 040720Z AUTO 26012G22KT 230V300 9999 BKN023 01/M05 Q1005

Prévision TAF périmée.



MET'MAP, la Météo Aéronautique d'un coup d'oeil ! - Copyright ORBIFLY Décembre 2007 - Disclaimer

ORBIFLY MET'MAP TEAM :

Programmation & Développement : Alexandra Zaïnal
Sur une idée originale de : Baudouin d'Aumeries
Assistance à la programmation : Marc-Olivier Méhu
Soutien technique & logistique : Manuel Goepfert

Contact : metmap@orbifly.com




SOURCES & CREDITS :

   NOAA